Elm Grove, West Virginia
Current Conditions -  °F | °C
As of 5:53 AM on Monday 22 Dec 2014 (Local Time) from KHLG Reporting Station
Clear Clear  
Wind Chill: -6°   Ceiling: Unl
Heat Index: -3°   Visibility: 8mi
Dew Point: -6°   Wind: 5mph
Humidity: 84%   Direction: 100°E
Pressure: 30.1"   Gusts: NA
Location:  40.0729°N, 80.6524°W
Report Text: KHLG 221053Z AUTO 10004KT 8SM CLR M03/M06 A3010 RMK AO2 SLP208 T10331056
Loading
Personal Weather Stations






























Interactive Weather Map New forecast layout! Learn more

10-Day Weather Forecast

Advertisements
Track Severe Weather on mobile